Time;durP1;ratioP1;P1;durP2;ratioP2;P2;SDS_P1;SDS_P2;PMS_P1;PMS_P2;Temp;Humidity;BMP_temperature;BMP_pressure;BME280_temperature;BME280_humidity;BME280_pressure;Samples;Min_cycle;Max_cycle;Signal;HPM_P1;HPM_P2
2022/08/29 00:00:23;;;;;;;;;;;;;;;-142.75;100.00;77511.34;5057973;28;19999;-66
2022/08/29 00:02:49;;;;;;;;;;;;;;;-142.75;100.00;77503.47;5057366;28;20376;-66
2022/08/29 00:05:15;;;;;;;;;;;;;;;-142.75;100.00;77507.41;5039668;28;19913;-66
2022/08/29 00:07:41;;;;;;;;;;;;;;;-142.75;100.00;77515.28;5057165;28;19951;-66
2022/08/29 00:10:06;;;;;;;;;;;;;;;-142.75;100.00;77507.41;5057660;28;19913;-66
2022/08/29 00:12:31;;;;;;;;;;;;;;;-142.75;100.00;77507.41;5057085;28;19912;-66
2022/08/29 00:14:57;;;;;;;;;;;;;;;-142.75;100.00;77515.28;5058717;28;19955;-66
2022/08/29 00:17:22;;;;;;;;;;;;;;;-142.75;100.00;77503.47;5057930;28;20016;-66
2022/08/29 00:19:47;;;;;;;;;;;;;;;-142.75;100.00;77515.28;5058262;28;19912;-66
2022/08/29 00:22:12;;;;;;;;;;;;;;;-142.75;100.00;77523.16;5057831;28;19920;-66
2022/08/29 00:24:38;;;;;;;;;;;;;;;-142.75;100.00;77499.53;5058259;28;20378;-66
2022/08/29 00:27:03;;;;;;;;;;;;;;;-142.75;100.00;77509.38;5058099;28;19976;-66
2022/08/29 00:29:28;;;;;;;;;;;;;;;-142.75;100.00;77499.53;5040147;28;19923;-66
2022/08/29 00:31:54;;;;;;;;;;;;;;;-142.75;100.00;77507.41;5057890;28;19920;-66
2022/08/29 00:34:19;;;;;;;;;;;;;;;-142.75;100.00;77507.41;5057419;28;19920;-66
2022/08/29 00:36:44;;;;;;;;;;;;;;;-142.75;100.00;77501.50;5039674;28;19913;-66
2022/08/29 00:39:10;;;;;;;;;;;;;;;-142.75;100.00;77497.56;5057610;28;19917;-66
2022/08/29 00:41:35;;;;;;;;;;;;;;;-142.75;100.00;77505.44;5039086;28;20083;-66
2022/08/29 00:44:01;;;;;;;;;;;;;;;-142.75;100.00;77511.34;5057215;28;20294;-66
2022/08/29 00:46:41;;;;;;;;;;;;;;;-142.75;100.00;77503.47;5057422;28;19917;-67
2022/08/29 00:49:25;;;;;;;;;;;;;;;-142.75;100.00;77497.56;5057162;28;19913;-66
2022/08/29 00:51:51;;;;;;;;;;;;;;;-142.75;100.00;77501.50;5038993;28;20012;-66
2022/08/29 00:54:16;;;;;;;;;;;;;;;-142.75;100.00;77499.53;5056719;28;19917;-66
2022/08/29 00:56:42;;;;;;;;;;;;;;;-142.75;100.00;77501.50;5056487;28;19920;-66
2022/08/29 00:59:09;;;;;;;;;;;;;;;-142.75;100.00;77483.78;5056629;28;19923;-66
2022/08/29 01:01:34;;;;;;;;;;;;;;;-142.75;100.00;77493.63;5038447;28;19958;-66
2022/08/29 01:04:00;;;;;;;;;;;;;;;-142.75;100.00;77487.72;5056826;28;19917;-66
2022/08/29 01:06:26;;;;;;;;;;;;;;;-142.75;100.00;77485.75;5056802;28;19913;-66
2022/08/29 01:08:51;;;;;;;;;;;;;;;-142.75;100.00;77499.53;5056312;28;19913;-66
2022/08/29 01:14:01;;;;;;;;;;;;;;;-142.75;100.00;77505.44;5056848;28;19959;-66
2022/08/29 01:16:27;;;;;;;;;;;;;;;-142.75;100.00;77519.22;5056280;28;19913;-66
2022/08/29 01:18:55;;;;;;;;;;;;;;;-142.75;100.00;77511.34;5056088;28;19921;-66
2022/08/29 01:23:58;;;;;;;;;;;;;;;-142.75;100.00;77542.84;5089468;22;20409;-67
2022/08/29 01:26:27;;;;;;;;;;;;;;;-142.75;100.00;77548.75;5054358;28;20302;-67
2022/08/29 01:28:52;;;;;;;;;;;;;;;-142.75;100.00;77542.84;5073099;28;20374;-68
2022/08/29 01:31:19;;;;;;;;;;;;;;;-142.75;100.00;77540.88;5073208;28;19913;-68
2022/08/29 01:33:44;;;;;;;;;;;;;;;-142.75;100.00;77554.66;5055238;28;19912;-68
2022/08/29 01:36:11;;;;;;;;;;;;;;;-142.75;100.00;77554.66;5073066;28;19919;-68
2022/08/29 01:38:37;;;;;;;;;;;;;;;-142.75;100.00;77554.66;5072768;28;19917;-68
2022/08/29 01:41:03;;;;;;;;;;;;;;;-142.75;100.00;77548.75;5073161;28;19912;-68
2022/08/29 01:43:28;;;;;;;;;;;;;;;-142.75;100.00;77542.84;5072934;28;19912;-69
2022/08/29 01:45:54;;;;;;;;;;;;;;;-142.75;100.00;77542.84;5073007;28;19963;-68
2022/08/29 01:48:20;;;;;;;;;;;;;;;-142.75;100.00;77548.75;5072599;28;19912;-68
2022/08/29 01:50:45;;;;;;;;;;;;;;;-142.75;100.00;77552.69;5072760;28;19919;-68
2022/08/29 01:53:11;;;;;;;;;;;;;;;-142.75;100.00;77562.53;5072783;28;20378;-68
2022/08/29 01:55:37;;;;;;;;;;;;;;;-142.75;100.00;77558.59;5054931;28;19912;-68
2022/08/29 01:58:02;;;;;;;;;;;;;;;-142.75;100.00;77578.28;5072476;28;20369;-68
2022/08/29 02:00:28;;;;;;;;;;;;;;;-142.75;100.00;77572.38;5072914;28;19912;-68
2022/08/29 02:02:55;;;;;;;;;;;;;;;-142.75;100.00;77580.25;5072469;28;19965;-68
2022/08/29 02:05:22;;;;;;;;;;;;;;;-142.75;100.00;77570.41;5054707;28;20057;-67
2022/08/29 02:07:47;;;;;;;;;;;;;;;-142.75;100.00;77570.41;5054478;28;19920;-68
2022/08/29 02:10:13;;;;;;;;;;;;;;;-142.75;100.00;77578.28;5054532;28;20370;-68
2022/08/29 02:12:39;;;;;;;;;;;;;;;-142.75;100.00;77574.34;5054506;28;20030;-68
2022/08/29 02:15:05;;;;;;;;;;;;;;;-142.75;100.00;77590.09;5071579;28;19960;-68
2022/08/29 02:17:30;;;;;;;;;;;;;;;-142.75;100.00;77617.66;5072053;28;19989;-68
2022/08/29 02:19:55;;;;;;;;;;;;;;;-142.75;100.00;77615.69;5072303;28;19919;-67
2022/08/29 02:22:20;;;;;;;;;;;;;;;-142.75;100.00;77619.63;5072213;28;19917;-67
2022/08/29 02:24:45;;;;;;;;;;;;;;;-142.75;100.00;77609.78;5072462;28;19966;-68
2022/08/29 02:27:11;;;;;;;;;;;;;;;-142.75;100.00;77599.94;5072128;28;19912;-68
2022/08/29 02:29:37;;;;;;;;;;;;;;;-142.75;100.00;77609.78;5072406;28;19912;-67
2022/08/29 02:32:02;;;;;;;;;;;;;;;-142.75;100.00;77613.72;5072213;28;19958;-68
2022/08/29 02:34:29;;;;;;;;;;;;;;;-142.75;100.00;77605.84;5072180;28;19916;-68
2022/08/29 02:36:55;;;;;;;;;;;;;;;-142.75;100.00;77596.00;5072056;28;20399;-67
2022/08/29 02:39:20;;;;;;;;;;;;;;;-142.75;100.00;77590.09;5072191;28;20007;-68
2022/08/29 02:41:45;;;;;;;;;;;;;;;-142.75;100.00;77592.06;5072145;28;19935;-68
2022/08/29 02:44:11;;;;;;;;;;;;;;;-142.75;100.00;77601.91;5072184;28;19912;-67
2022/08/29 02:46:36;;;;;;;;;;;;;;;-142.75;100.00;77596.00;5071742;28;19935;-67
2022/08/29 02:49:01;;;;;;;;;;;;;;;-142.75;100.00;77597.97;5072055;28;19974;-68
2022/08/29 02:51:28;;;;;;;;;;;;;;;-142.75;100.00;77611.75;5072042;28;19912;-68
2022/08/29 02:53:54;;;;;;;;;;;;;;;-142.75;100.00;77629.47;5053967;28;19913;-68
2022/08/29 02:56:19;;;;;;;;;;;;;;;-142.75;100.00;77635.38;5072065;28;19912;-68
2022/08/29 02:58:45;;;;;;;;;;;;;;;-142.75;100.00;77633.41;5071539;28;19970;-67
2022/08/29 03:01:11;;;;;;;;;;;;;;;-142.75;100.00;77653.09;5071981;28;20002;-68
2022/08/29 03:03:36;;;;;;;;;;;;;;;-142.75;100.00;77649.16;5053809;28;19919;-67
2022/08/29 03:06:01;;;;;;;;;;;;;;;-142.75;100.00;77655.06;5071967;28;19913;-68
2022/08/29 03:08:27;;;;;;;;;;;;;;;-142.75;100.00;77645.22;5053683;28;19912;-67
2022/08/29 03:10:52;;;;;;;;;;;;;;;-142.75;100.00;77643.25;5071926;28;19916;-68
2022/08/29 03:13:17;;;;;;;;;;;;;;;-142.75;100.00;77633.41;5071806;28;20378;-67
2022/08/29 03:15:43;;;;;;;;;;;;;;;-142.75;100.00;77655.06;5053815;28;19919;-67
2022/08/29 03:18:08;;;;;;;;;;;;;;;-142.75;100.00;77660.97;5071441;28;19917;-68
2022/08/29 03:20:34;;;;;;;;;;;;;;;-142.75;100.00;77680.66;5071757;28;19924;-68
2022/08/29 03:22:59;;;;;;;;;;;;;;;-142.75;100.00;77682.63;5071557;28;20389;-68
2022/08/29 03:25:25;;;;;;;;;;;;;;;-142.75;100.00;77684.59;5073152;28;19912;-67
2022/08/29 03:27:51;;;;;;;;;;;;;;;-142.75;100.00;77672.78;5075418;28;19913;-68
2022/08/29 03:30:17;;;;;;;;;;;;;;;-142.75;100.00;77660.97;5075575;28;19918;-67
2022/08/29 03:32:43;;;;;;;;;;;;;;;-142.75;100.00;77653.09;5075453;28;19998;-68
2022/08/29 03:35:09;;;;;;;;;;;;;;;-142.75;100.00;77645.22;5075469;28;20004;-68
2022/08/29 03:37:35;;;;;;;;;;;;;;;-142.75;100.00;77635.38;5057121;28;19916;-67
2022/08/29 03:40:00;;;;;;;;;;;;;;;-142.75;100.00;77639.31;5075415;28;20042;-67
2022/08/29 03:42:25;;;;;;;;;;;;;;;-142.75;100.00;77645.22;5075282;28;20419;-67
2022/08/29 03:44:50;;;;;;;;;;;;;;;-142.75;100.00;77633.41;5075252;28;19913;-68
2022/08/29 03:47:15;;;;;;;;;;;;;;;-142.75;100.00;77627.50;5074856;28;19917;-68
2022/08/29 03:49:41;;;;;;;;;;;;;;;-142.75;100.00;77605.84;5075161;28;19920;-67
2022/08/29 03:52:08;;;;;;;;;;;;;;;-142.75;100.00;77605.84;5075110;28;20354;-68
2022/08/29 03:54:33;;;;;;;;;;;;;;;-142.75;100.00;77590.09;5075073;28;20010;-68
2022/08/29 03:56:59;;;;;;;;;;;;;;;-142.75;100.00;77594.03;5074811;28;20011;-68
2022/08/29 03:59:24;;;;;;;;;;;;;;;-142.75;100.00;77596.00;5074955;28;19967;-67
2022/08/29 04:01:50;;;;;;;;;;;;;;;-142.75;100.00;77605.84;5074882;28;19912;-67
2022/08/29 04:07:00;;;;;;;;;;;;;;;-142.75;100.00;77584.19;5074715;28;19919;-68
2022/08/29 04:09:26;;;;;;;;;;;;;;;-142.75;100.00;77570.41;5074923;28;19920;-68
2022/08/29 04:11:51;;;;;;;;;;;;;;;-142.75;100.00;77582.22;5074731;28;19912;-68
2022/08/29 04:14:19;;;;;;;;;;;;;;;-142.75;100.00;77599.94;5074699;28;19958;-68
2022/08/29 04:16:46;;;;;;;;;;;;;;;-142.75;100.00;77578.28;5066927;28;19996;-68
2022/08/29 04:19:12;;;;;;;;;;;;;;;-142.75;100.00;77578.28;5064656;28;19917;-68
2022/08/29 04:21:37;;;;;;;;;;;;;;;-142.75;100.00;77580.25;5057413;28;20050;-68
2022/08/29 04:24:02;;;;;;;;;;;;;;;-142.75;100.00;77562.53;5054645;28;19947;-68
2022/08/29 04:26:27;;;;;;;;;;;;;;;-142.75;100.00;77574.34;5054442;28;19971;-67
2022/08/29 04:28:52;;;;;;;;;;;;;;;-142.75;100.00;77570.41;5054188;28;19920;-68
2022/08/29 04:31:19;;;;;;;;;;;;;;;-142.75;100.00;77570.41;5054382;28;19913;-68
2022/08/29 04:33:45;;;;;;;;;;;;;;;-142.75;100.00;77562.53;5054560;28;19917;-68
2022/08/29 04:36:10;;;;;;;;;;;;;;;-142.75;100.00;77580.25;5053901;28;19913;-68
2022/08/29 04:38:35;;;;;;;;;;;;;;;-142.75;100.00;77590.09;5053525;28;20337;-67
2022/08/29 04:41:03;;;;;;;;;;;;;;;-142.75;100.00;77613.72;5054526;28;19975;-68
2022/08/29 04:43:29;;;;;;;;;;;;;;;-142.75;100.00;77611.75;5036258;28;20385;-68
2022/08/29 04:45:55;;;;;;;;;;;;;;;-142.75;100.00;77594.03;5054164;28;19917;-68
2022/08/29 04:48:20;;;;;;;;;;;;;;;-142.75;100.00;77605.84;5053787;28;19920;-68
2022/08/29 04:50:51;;;;;;;;;;;;;;;-142.75;100.00;77603.88;5036158;28;19913;-68
2022/08/29 04:53:16;;;;;;;;;;;;;;;-142.75;100.00;77613.72;5054065;28;19999;-68
2022/08/29 04:55:42;;;;;;;;;;;;;;;-142.75;100.00;77613.72;5053995;28;20358;-68
2022/08/29 04:58:07;;;;;;;;;;;;;;;-142.75;100.00;77623.56;5053564;28;19917;-68
2022/08/29 05:00:32;;;;;;;;;;;;;;;-142.75;100.00;77633.41;5036006;28;19913;-68
2022/08/29 05:02:58;;;;;;;;;;;;;;;-142.75;100.00;77639.31;5053805;28;19913;-68
2022/08/29 05:05:24;;;;;;;;;;;;;;;-142.75;100.00;77637.34;5053872;28;20387;-68
2022/08/29 05:07:49;;;;;;;;;;;;;;;-142.75;100.00;77625.53;5053564;28;19920;-67
2022/08/29 05:10:16;;;;;;;;;;;;;;;-142.75;100.00;77617.66;5035870;28;20367;-68
2022/08/29 05:12:42;;;;;;;;;;;;;;;-142.75;100.00;77621.59;5053616;28;19939;-68
2022/08/29 05:15:07;;;;;;;;;;;;;;;-142.75;100.00;77619.63;5035777;28;19913;-68
2022/08/29 05:17:32;;;;;;;;;;;;;;;-142.75;100.00;77615.69;5053308;28;19966;-68
2022/08/29 05:19:58;;;;;;;;;;;;;;;-142.75;100.00;77611.75;5053597;28;19996;-68
2022/08/29 05:22:23;;;;;;;;;;;;;;;-142.75;100.00;77623.56;5035529;28;20290;-68
2022/08/29 05:24:49;;;;;;;;;;;;;;;-142.75;100.00;77627.50;5053473;28;19919;-68
2022/08/29 05:27:16;;;;;;;;;;;;;;;-142.75;100.00;77627.50;5053093;28;19923;-68
2022/08/29 05:29:43;;;;;;;;;;;;;;;-142.75;100.00;77625.53;5053403;28;20433;-68
2022/08/29 05:32:09;;;;;;;;;;;;;;;-142.75;100.00;77613.72;5053240;28;20008;-68
2022/08/29 05:34:35;;;;;;;;;;;;;;;-142.75;100.00;77629.47;5053314;28;19952;-68
2022/08/29 05:37:01;;;;;;;;;;;;;;;-142.75;100.00;77621.59;5052864;28;19913;-68
2022/08/29 05:39:26;;;;;;;;;;;;;;;-142.75;100.00;77625.53;5035246;28;20012;-68
2022/08/29 05:41:55;;;;;;;;;;;;;;;-142.75;100.00;77623.56;5035363;28;19948;-68
2022/08/29 05:44:20;;;;;;;;;;;;;;;-142.75;100.00;77609.78;5053084;28;19920;-68
2022/08/29 05:46:47;;;;;;;;;;;;;;;-142.75;100.00;77609.78;5052770;28;19913;-68
2022/08/29 05:49:12;;;;;;;;;;;;;;;-142.75;100.00;77615.69;5052762;28;20050;-68
2022/08/29 05:51:37;;;;;;;;;;;;;;;-142.75;100.00;77605.84;5052917;28;19952;-68
2022/08/29 05:54:03;;;;;;;;;;;;;;;-142.75;100.00;77596.00;5052925;28;19913;-68
2022/08/29 05:56:29;;;;;;;;;;;;;;;-142.75;100.00;77584.19;5052639;28;20398;-68
2022/08/29 05:58:54;;;;;;;;;;;;;;;-142.75;100.00;77568.44;5052417;28;19917;-65
2022/08/29 06:01:21;;;;;;;;;;;;;;;-142.75;100.00;77554.66;5052471;28;19920;-68
2022/08/29 06:03:46;;;;;;;;;;;;;;;-142.75;100.00;77542.84;5052681;28;19912;-68
2022/08/29 06:06:11;;;;;;;;;;;;;;;-142.75;100.00;77536.94;5052638;28;19919;-68
2022/08/29 06:08:36;;;;;;;;;;;;;;;-142.75;100.00;77536.94;5052358;28;19912;-69
2022/08/29 06:11:02;;;;;;;;;;;;;;;-142.75;100.00;77519.22;5034788;28;19913;-68
2022/08/29 06:13:27;;;;;;;;;;;;;;;-142.75;100.00;77507.41;5052663;28;20361;-68
2022/08/29 06:15:52;;;;;;;;;;;;;;;-142.75;100.00;77499.53;5052551;28;19912;-67
2022/08/29 06:18:17;;;;;;;;;;;;;;;-142.75;100.00;77475.91;5034175;28;20388;-68
2022/08/29 06:20:42;;;;;;;;;;;;;;;-142.75;100.00;77444.38;5034586;28;20015;-68
2022/08/29 06:23:08;;;;;;;;;;;;;;;-142.75;100.00;77420.75;5034269;28;19921;-68
2022/08/29 06:25:33;;;;;;;;;;;;;;;-142.75;100.00;77391.22;5034417;28;19916;-66
2022/08/29 06:27:58;;;;;;;;;;;;;;;-142.75;100.00;77373.50;5051947;28;19920;-68
2022/08/29 06:30:24;;;;;;;;;;;;;;;-142.75;100.00;77365.63;5052279;28;19917;-68
2022/08/29 06:32:49;;;;;;;;;;;;;;;-142.75;100.00;77361.69;5052201;28;19920;-68
2022/08/29 06:35:14;;;;;;;;;;;;;;;-142.75;100.00;77365.63;5052247;28;20473;-68
2022/08/29 06:37:40;;;;;;;;;;;;;;;-142.75;100.00;77357.75;5051869;28;19924;-68
2022/08/29 06:40:05;;;;;;;;;;;;;;;-142.75;100.00;77365.63;5052136;28;19935;-68
2022/08/29 06:42:30;;;;;;;;;;;;;;;-142.75;100.00;77355.78;5052425;28;20302;-68
2022/08/29 06:44:56;;;;;;;;;;;;;;;-142.75;100.00;77332.16;5052126;28;20329;-68
2022/08/29 06:47:21;;;;;;;;;;;;;;;-142.75;100.00;77308.53;5051708;28;19924;-67
2022/08/29 06:49:47;;;;;;;;;;;;;;;-142.75;100.00;77290.81;5052111;28;19919;-69
2022/08/29 06:52:12;;;;;;;;;;;;;;;-142.75;100.00;77273.09;5052034;28;20008;-68
2022/08/29 06:54:37;;;;;;;;;;;;;;;-142.75;100.00;77243.56;5051970;28;20386;-68
2022/08/29 06:57:02;;;;;;;;;;;;;;;-142.75;100.00;77231.75;5051632;28;20003;-68
2022/08/29 06:59:28;;;;;;;;;;;;;;;-142.75;100.00;77216.00;5051923;28;20020;-69
2022/08/29 07:01:56;;;;;;;;;;;;;;;-142.75;100.00;77202.22;5055956;28;19956;-68
2022/08/29 07:04:21;;;;;;;;;;;;;;;-142.75;100.00;77190.41;5056075;28;19919;-68
2022/08/29 07:06:47;;;;;;;;;;;;;;;-142.75;100.00;77168.75;5037876;28;19913;-69
2022/08/29 07:09:12;;;;;;;;;;;;;;;-142.75;100.00;77164.81;5038124;28;19920;-68
2022/08/29 07:11:38;;;;;;;;;;;;;;;-142.75;100.00;77160.88;5055812;28;20000;-68
2022/08/29 07:14:03;;;;;;;;;;;;;;;-142.75;100.00;77145.13;5055918;28;19920;-68
2022/08/29 07:16:29;;;;;;;;;;;;;;;-142.75;100.00;77151.03;5055840;28;20418;-68
2022/08/29 07:18:55;;;;;;;;;;;;;;;-142.75;100.00;77141.19;5055625;28;20008;-68
2022/08/29 07:21:21;;;;;;;;;;;;;;;-142.75;100.00;77153.00;5055806;28;20002;-68
2022/08/29 07:23:47;;;;;;;;;;;;;;;-142.75;100.00;77125.44;5109152;22;19984;-67
2022/08/29 07:26:17;;;;;;;;;;;;;;;-142.75;100.00;77121.50;5097732;28;20309;-67
2022/08/29 07:28:42;;;;;;;;;;;;;;;-142.75;100.00;77117.56;5098535;28;19994;-66
2022/08/29 07:31:08;;;;;;;;;;;;;;;-142.75;100.00;77121.50;5098400;28;20008;-66
2022/08/29 07:33:34;;;;;;;;;;;;;;;-142.75;100.00;77111.66;5080619;28;20007;-66
2022/08/29 07:35:59;;;;;;;;;;;;;;;-142.75;100.00;77109.69;5079155;28;19917;-66
2022/08/29 07:38:24;;;;;;;;;;;;;;;-142.75;100.00;77091.97;5077989;28;19920;-66
2022/08/29 07:41:00;;;;;;;;;;;;;;;-142.75;100.00;77074.25;5078876;28;19919;-66
2022/08/29 07:43:25;;;;;;;;;;;;;;;-142.75;100.00;77070.31;5077174;28;19942;-67
2022/08/29 07:45:51;;;;;;;;;;;;;;;-142.75;100.00;77056.53;5078565;28;19916;-66
2022/08/29 07:48:16;;;;;;;;;;;;;;;-142.75;100.00;77034.88;5077322;28;19963;-66
2022/08/29 07:50:41;;;;;;;;;;;;;;;-142.75;100.00;77038.81;5078552;28;19916;-66
2022/08/29 07:53:06;;;;;;;;;;;;;;;-142.75;100.00;77036.84;5078213;28;20283;-66
2022/08/29 07:55:32;;;;;;;;;;;;;;;-142.75;100.00;77028.97;5078373;28;19919;-66
2022/08/29 07:57:57;;;;;;;;;;;;;;;-142.75;100.00;77034.88;5078100;28;19920;-66
2022/08/29 08:00:22;;;;;;;;;;;;;;;-142.75;100.00;77054.56;5079057;28;20011;-67
2022/08/29 08:02:47;;;;;;;;;;;;;;;-142.75;100.00;77046.69;5081312;28;19927;-66
2022/08/29 08:05:12;;;;;;;;;;;;;;;-142.75;100.00;77046.69;5077137;28;20003;-66
2022/08/29 08:07:38;;;;;;;;;;;;;;;-142.75;100.00;77052.59;5074944;28;20475;-65
2022/08/29 08:10:03;;;;;;;;;;;;;;;-142.75;100.00;77048.66;5076037;28;19916;-65
2022/08/29 08:12:28;;;;;;;;;;;;;;;-142.75;100.00;77058.50;5077029;28;19922;-65
2022/08/29 08:14:54;;;;;;;;;;;;;;;-142.75;100.00;77056.53;5076992;28;19913;-65
2022/08/29 08:17:20;;;;;;;;;;;;;;;-142.75;100.00;77044.72;5076658;28;19912;-65
2022/08/29 08:19:45;;;;;;;;;;;;;;;-142.75;100.00;77030.94;5076259;28;20398;-65
2022/08/29 08:22:10;;;;;;;;;;;;;;;-142.75;100.00;77007.31;5074350;28;19916;-65
2022/08/29 08:24:35;;;;;;;;;;;;;;;-142.75;100.00;77009.28;5067970;28;20308;-65
2022/08/29 08:27:01;;;;;;;;;;;;;;;-142.75;100.00;77015.19;5066788;28;19923;-66
2022/08/29 08:29:26;;;;;;;;;;;;;;;-142.75;100.00;76991.56;5072422;28;19917;-67
2022/08/29 08:31:51;;;;;;;;;;;;;;;-142.75;100.00;76975.81;5072618;28;19913;-67
2022/08/29 08:34:17;;;;;;;;;;;;;;;-142.75;100.00;76975.81;5067364;28;20791;-67
2022/08/29 08:36:43;;;;;;;;;;;;;;;-142.75;100.00;76971.88;5064612;28;19920;-67
2022/08/29 08:39:09;;;;;;;;;;;;;;;-142.75;100.00;76948.25;5067995;28;19978;-67
2022/08/29 08:42:03;;;;;;;;;;;;;;;-142.75;100.00;76932.50;5068992;28;20023;-66
2022/08/29 08:44:50;;;;;;;;;;;;;;;-142.75;100.00;76916.75;5043904;28;19913;-67
2022/08/29 08:47:21;;;;;;;;;;;;;;;-142.75;100.00;76914.78;5061499;28;19912;-66
2022/08/29 08:50:08;;;;;;;;;;;;;;;-142.75;100.00;76908.88;5061627;28;20342;-66
2022/08/29 08:52:41;;;;;;;;;;;;;;;-142.75;100.00;76918.72;5039847;28;19913;-66
2022/08/29 08:55:27;;;;;;;;;;;;;;;-142.75;100.00;76904.94;5070525;28;19953;-67
2022/08/29 08:58:15;;;;;;;;;;;;;;;-142.75;100.00;76904.94;5047453;28;19928;-67
2022/08/29 09:00:42;;;;;;;;;;;;;;;-142.75;100.00;76885.25;5050495;28;20351;-67
2022/08/29 09:03:16;;;;;;;;;;;;;;;-142.75;100.00;76879.34;5062022;28;19990;-66
2022/08/29 09:05:41;;;;;;;;;;;;;;;-142.75;100.00;76873.44;5063533;28;20004;-67
2022/08/29 09:08:13;;;;;;;;;;;;;;;-142.75;100.00;76865.56;5064415;28;20663;-67
2022/08/29 09:10:44;;;;;;;;;;;;;;;-142.75;100.00;76865.56;5057133;28;20301;-67
2022/08/29 09:13:10;;;;;;;;;;;;;;;-142.75;100.00;76877.38;5062189;28;20351;-66
2022/08/29 09:15:42;;;;;;;;;;;;;;;-142.75;100.00;76889.19;5069880;28;19964;-66
2022/08/29 09:18:10;;;;;;;;;;;;;;;-142.75;100.00;76871.47;5059352;28;20336;-66
2022/08/29 09:20:37;;;;;;;;;;;;;;;-142.75;100.00;76847.84;5069234;28;19916;-66
2022/08/29 09:23:17;;;;;;;;;;;;;;;-142.75;100.00;76861.63;5060292;28;19917;-67
2022/08/29 09:25:43;;;;;;;;;;;;;;;-142.75;100.00;76857.69;5057378;28;19916;-67
2022/08/29 09:28:08;;;;;;;;;;;;;;;-142.75;100.00;76851.78;5065690;28;19920;-66
2022/08/29 09:30:35;;;;;;;;;;;;;;;-142.75;100.00;76834.06;5067777;28;19919;-66
2022/08/29 09:33:02;;;;;;;;;;;;;;;-142.75;100.00;76845.88;5073538;28;19999;-67
2022/08/29 09:35:39;;;;;;;;;;;;;;;-142.75;100.00;76830.13;5064571;28;19943;-67
2022/08/29 09:38:07;;;;;;;;;;;;;;;-142.75;100.00;76782.91;5072646;28;19917;-67
2022/08/29 09:40:41;;;;;;;;;;;;;;;-142.75;100.00;76778.97;5065737;28;19913;-66
2022/08/29 09:43:06;;;;;;;;;;;;;;;-142.75;100.00;76794.69;5070484;28;19912;-67
2022/08/29 09:45:32;;;;;;;;;;;;;;;-142.75;100.00;76743.53;5065571;28;19958;-67
2022/08/29 09:48:07;;;;;;;;;;;;;;;-142.75;100.00;76731.72;5067054;28;20298;-67
2022/08/29 09:50:32;;;;;;;;;;;;;;;-142.75;100.00;76739.59;5066495;28;19920;-67
2022/08/29 09:52:59;;;;;;;;;;;;;;;-142.75;100.00;76739.59;5067536;28;19913;-67
2022/08/29 09:55:38;;;;;;;;;;;;;;;-142.75;100.00;76715.97;5071570;28;19913;-67
2022/08/29 09:58:06;;;;;;;;;;;;;;;-142.75;100.00;76739.59;5068240;28;19917;-67
2022/08/29 10:00:43;;;;;;;;;;;;;;;-142.75;100.00;76753.38;5069928;28;20011;-67
2022/08/29 10:03:18;;;;;;;;;;;;;;;-142.75;100.00;76759.28;5069891;28;19919;-67
2022/08/29 10:05:45;;;;;;;;;;;;;;;-142.75;100.00;76743.53;5069364;28;19920;-67
2022/08/29 10:08:24;;;;;;;;;;;;;;;-142.75;100.00;76761.25;5068069;28;19913;-67
2022/08/29 10:10:51;;;;;;;;;;;;;;;-142.75;100.00;76719.91;5063089;28;19944;-67
2022/08/29 10:13:20;;;;;;;;;;;;;;;-142.75;100.00;76660.84;5067422;28;20335;-68
2022/08/29 10:16:06;;;;;;;;;;;;;;;-142.75;100.00;76647.06;5068188;28;20400;-67
2022/08/29 10:18:34;;;;;;;;;;;;;;;-142.75;100.00;76633.28;5070923;28;19982;-67
2022/08/29 10:21:15;;;;;;;;;;;;;;;-142.75;100.00;76617.53;5067963;28;19919;-67
2022/08/29 10:23:59;;;;;;;;;;;;;;;-142.75;100.00;76544.69;5071147;28;19923;-66
2022/08/29 10:26:24;;;;;;;;;;;;;;;-142.75;100.00;76509.28;5065234;28;19939;-66
2022/08/29 10:29:04;;;;;;;;;;;;;;;-142.75;100.00;76471.88;5069954;28;20045;-67
2022/08/29 10:31:50;;;;;;;;;;;;;;;-142.75;97.57;76444.31;5067657;28;19923;-66
2022/08/29 10:34:26;;;;;;;;;;;;;;;-142.75;96.00;76401.00;5057122;28;19957;-66
2022/08/29 10:36:59;;;;;;;;;;;;;;;-142.75;88.95;76294.72;5072146;28;19948;-66
2022/08/29 10:39:27;;;;;;;;;;;;;;;-142.75;85.37;76263.22;5065658;28;19916;-66
2022/08/29 10:41:58;;;;;;;;;;;;;;;-142.75;79.46;76241.56;5072204;28;19920;-66
2022/08/29 10:44:27;;;;;;;;;;;;;;;-142.75;75.60;76200.25;5061885;28;19919;-66
2022/08/29 10:46:59;;;;;;;;;;;;;;;-142.75;78.04;76225.81;5060986;28;19912;-67
2022/08/29 10:49:30;;;;;;;;;;;;;;;-142.75;81.05;76190.41;5062058;28;19913;-67
2022/08/29 10:52:01;;;;;;;;;;;;;;;-142.75;77.77;76190.41;5073860;28;19919;-67
2022/08/29 10:54:45;;;;;;;;;;;;;;;-142.75;76.96;76326.22;5066980;28;19920;-67
2022/08/29 10:57:14;;;;;;;;;;;;;;;-142.75;79.48;76359.66;5061788;28;20061;-67
2022/08/29 10:59:59;;;;;;;;;;;;;;;-142.75;83.03;76406.91;5069825;28;20011;-67
2022/08/29 11:02:44;;;;;;;;;;;;;;;-142.75;85.26;76446.28;5062663;28;20341;-67
2022/08/29 11:05:14;;;;;;;;;;;;;;;-142.75;86.41;76487.63;5069546;28;20389;-67
2022/08/29 11:07:42;;;;;;;;;;;;;;;-142.75;91.09;76530.91;5063121;28;20008;-67
2022/08/29 11:10:19;;;;;;;;;;;;;;;-142.75;91.75;76595.88;5066592;28;20386;-67
2022/08/29 11:12:54;;;;;;;;;;;;;;;-142.75;95.30;76593.91;5065022;28;19912;-67
2022/08/29 11:15:25;;;;;;;;;;;;;;;-142.75;98.47;76591.94;5066705;28;19974;-67
2022/08/29 11:18:03;;;;;;;;;;;;;;;-142.75;98.25;76601.78;5069454;28;20293;-67
2022/08/29 11:20:31;;;;;;;;;;;;;;;-142.75;98.94;76641.16;5065914;28;19995;-67
2022/08/29 11:23:15;;;;;;;;;;;;;;;-142.75;98.39;76615.56;5069625;28;19946;-65
2022/08/29 11:25:41;;;;;;;;;;;;;;;-142.75;100.00;76635.25;5057396;28;20340;-67
2022/08/29 11:28:12;;;;;;;;;;;;;;;-142.75;96.62;76597.84;5068959;28;20003;-67
2022/08/29 11:30:41;;;;;;;;;;;;;;;-142.75;97.57;76570.28;5061856;28;20287;-67
2022/08/29 11:33:12;;;;;;;;;;;;;;;-142.75;92.18;76523.06;5059157;28;19916;-67
2022/08/29 11:35:43;;;;;;;;;;;;;;;-142.75;87.49;76401.00;5062053;28;19912;-66
2022/08/29 11:38:26;;;;;;;;;;;;;;;-142.75;83.38;76401.00;5067091;28;19916;-67
2022/08/29 11:40:57;;;;;;;;;;;;;;;-142.75;80.75;76341.97;5070950;28;19991;-66
2022/08/29 11:43:24;;;;;;;;;;;;;;;-142.75;77.25;76223.84;5060607;28;19998;-68
2022/08/29 11:45:57;;;;;;;;;;;;;;;-142.75;75.06;76204.16;5071000;28;19923;-67
2022/08/29 11:48:42;;;;;;;;;;;;;;;-142.75;72.80;76113.63;5063941;28;20015;-67
2022/08/29 11:51:26;;;;;;;;;;;;;;;-142.75;69.13;76117.56;5065256;28;19920;-67
2022/08/29 11:53:51;;;;;;;;;;;;;;;-142.75;67.16;76090.00;5072519;28;19913;-68
2022/08/29 11:56:21;;;;;;;;;;;;;;;-142.75;67.23;76090.00;5069590;28;20279;-67
2022/08/29 11:58:49;;;;;;;;;;;;;;;-142.75;68.52;76095.91;5073534;28;19916;-67
2022/08/29 12:01:23;;;;;;;;;;;;;;;-142.75;67.55;76129.38;5069900;28;19912;-68
2022/08/29 12:03:48;;;;;;;;;;;;;;;-142.75;68.79;76129.38;5073578;28;19912;-68
2022/08/29 12:06:20;;;;;;;;;;;;;;;-142.75;69.37;76090.00;5066412;28;20405;-68
2022/08/29 12:08:57;;;;;;;;;;;;;;;-142.75;67.26;76064.44;5073318;28;19966;-68
2022/08/29 12:11:42;;;;;;;;;;;;;;;-142.75;64.78;76105.75;5064437;28;19919;-67
2022/08/29 12:14:07;;;;;;;;;;;;;;;-142.75;66.57;76103.78;5059623;28;19999;-67
2022/08/29 12:16:43;;;;;;;;;;;;;;;-142.75;69.05;76127.41;5064686;28;20440;-67
2022/08/29 12:19:09;;;;;;;;;;;;;;;-142.75;68.12;76178.59;5059845;28;19921;-67
2022/08/29 12:21:38;;;;;;;;;;;;;;;-142.75;69.77;76235.66;5063067;28;19916;-67
2022/08/29 12:24:04;;;;;;;;;;;;;;;-142.75;70.15;76168.75;5058980;28;19920;-66
2022/08/29 12:26:37;;;;;;;;;;;;;;;-142.75;69.93;76255.34;5061923;28;19916;-67
2022/08/29 12:29:02;;;;;;;;;;;;;;;-142.75;70.13;76286.84;5061149;28;19927;-67